Time;durP1;ratioP1;P1;durP2;ratioP2;P2;SDS_P1;SDS_P2;PMS_P1;PMS_P2;Temp;Humidity;BMP_temperature;BMP_pressure;BME280_temperature;BME280_humidity;BME280_pressure;Samples;Min_cycle;Max_cycle;Signal;HPM_P1;HPM_P2
2021/07/05 00:00:12;;;;;;;6.57;4.30;;;;;;;13.37;93.30;100301.59;699734;28;3810;-58
2021/07/05 00:00:34;;;;;;;7.60;4.72;;;;;;;13.35;93.45;100298.16;701215;28;1052;-59
2021/07/05 00:00:55;;;;;;;8.15;5.53;;;;;;;13.35;93.13;100308.66;701486;28;1457;-56
2021/07/05 00:01:15;;;;;;;8.57;5.20;;;;;;;13.34;93.37;100296.38;699281;28;1186;-58
2021/07/05 00:01:35;;;;;;;6.17;4.30;;;;;;;13.36;93.51;100306.88;682930;28;4569;-55
2021/07/05 00:01:56;;;;;;;5.90;4.23;;;;;;;13.35;93.04;100302.53;698251;28;2576;-57
2021/07/05 00:02:17;;;;;;;6.87;4.40;;;;;;;13.36;93.26;100304.25;699501;28;2137;-59
2021/07/05 00:02:37;;;;;;;6.60;4.53;;;;;;;13.36;93.45;100293.75;696375;28;1121;-65
2021/07/05 00:02:58;;;;;;;5.80;4.07;;;;;;;13.39;92.93;100304.22;697501;28;2414;-55
2021/07/05 00:03:18;;;;;;;6.50;4.10;;;;;;;13.36;92.96;100305.13;698586;28;2225;-57
2021/07/05 00:03:39;;;;;;;10.97;4.53;;;;;;;13.33;93.10;100299.91;699040;28;2661;-57
2021/07/05 00:03:59;;;;;;;8.57;5.03;;;;;;;13.33;93.40;100302.53;698491;28;955;-59
2021/07/05 00:04:20;;;;;;;8.75;5.00;;;;;;;13.31;93.67;100298.22;699998;28;1197;-59
2021/07/05 00:04:41;;;;;;;8.40;4.90;;;;;;;13.28;93.50;100297.38;700846;28;4420;-59
2021/07/05 00:05:02;;;;;;;7.00;5.00;;;;;;;13.27;93.81;100298.28;698824;28;1358;-58
2021/07/05 00:05:23;;;;;;;5.80;4.55;;;;;;;13.25;93.23;100302.72;693266;28;1315;-58
2021/07/05 00:05:43;;;;;;;7.70;4.47;;;;;;;13.26;93.69;100295.69;692633;28;2131;-59
2021/07/05 00:06:04;;;;;;;6.90;4.88;;;;;;;13.26;93.52;100301.81;694142;28;3934;-59
2021/07/05 00:06:25;;;;;;;6.22;4.40;;;;;;;13.27;92.81;100300.91;692896;28;1686;-58
2021/07/05 00:06:45;;;;;;;5.80;4.20;;;;;;;13.30;93.00;100294.72;693694;28;1672;-55
2021/07/05 00:07:06;;;;;;;6.60;4.32;;;;;;;13.26;93.13;100301.81;695352;28;1050;-58
2021/07/05 00:07:26;;;;;;;7.50;4.80;;;;;;;13.22;93.95;100294.03;699695;28;1321;-59
2021/07/05 00:07:47;;;;;;;7.77;4.60;;;;;;;13.19;93.77;100294.94;696271;28;4593;-59
2021/07/05 00:08:07;;;;;;;7.03;4.53;;;;;;;13.19;93.55;100292.31;696077;28;1536;-57
2021/07/05 00:08:28;;;;;;;6.97;5.07;;;;;;;13.19;93.53;100297.56;696306;28;1632;-63
2021/07/05 00:08:48;;;;;;;6.80;4.93;;;;;;;13.19;93.44;100294.09;696244;28;3571;-57
2021/07/05 00:09:08;;;;;;;6.53;4.90;;;;;;;13.20;93.81;100295.84;696550;28;3895;-57
2021/07/05 00:09:29;;;;;;;7.07;5.27;;;;;;;13.19;93.98;100294.09;696594;28;1155;-58
2021/07/05 00:09:49;;;;;;;7.97;4.80;;;;;;;13.19;93.72;100294.94;696073;28;1486;-58
2021/07/05 00:10:10;;;;;;;7.57;5.07;;;;;;;13.19;94.11;100288.84;696623;28;2249;-59
2021/07/05 00:10:31;;;;;;;6.07;4.90;;;;;;;13.21;93.75;100294.91;697163;28;1028;-58
2021/07/05 00:10:51;;;;;;;6.40;4.50;;;;;;;13.21;93.96;100290.53;699419;28;4413;-58
2021/07/05 00:11:12;;;;;;;7.73;4.70;;;;;;;13.21;94.07;100293.16;698726;28;1051;-59
2021/07/05 00:11:33;;;;;;;6.65;4.25;;;;;;;13.24;93.19;100305.38;699977;28;1963;-58
2021/07/05 00:11:53;;;;;;;7.53;4.50;;;;;;;13.25;93.48;100297.47;698713;28;2017;-57
2021/07/05 00:12:14;;;;;;;7.10;4.40;;;;;;;13.26;93.41;100296.56;699273;28;2113;-57
2021/07/05 00:12:35;;;;;;;6.38;3.72;;;;;;;13.29;92.14;100296.50;696535;28;1158;-59
2021/07/05 00:12:56;;;;;;;6.60;3.90;;;;;;;13.34;92.73;100298.16;696961;28;1273;-58
2021/07/05 00:13:16;;;;;;;6.78;4.30;;;;;;;13.33;93.05;100304.28;693887;28;1271;-57
2021/07/05 00:13:37;;;;;;;6.25;4.22;;;;;;;13.33;92.89;100299.03;694206;28;4403;-57
2021/07/05 00:13:58;;;;;;;6.10;4.30;;;;;;;13.34;92.70;100296.38;694176;28;1467;-58
2021/07/05 00:14:19;;;;;;;5.55;4.00;;;;;;;13.37;92.31;100300.75;694991;28;1807;-59
2021/07/05 00:14:39;;;;;;;6.10;4.00;;;;;;;13.38;92.62;100303.31;695842;28;1411;-56
2021/07/05 00:15:03;;;;;;;6.53;4.30;;;;;;;13.37;93.02;100303.38;695932;28;3399;-56
2021/07/05 00:15:27;;;;;;;7.30;4.70;;;;;;;13.35;93.42;100305.16;698107;28;913;-56
2021/07/05 00:15:48;;;;;;;7.97;4.75;;;;;;;13.34;93.45;100303.41;698417;28;1060;-56
2021/07/05 00:16:09;;;;;;;8.68;5.18;;;;;;;13.33;93.56;100304.28;697443;28;1008;-58
2021/07/05 00:16:29;;;;;;;7.33;5.00;;;;;;;13.28;93.94;100307.88;698369;28;1046;-58
2021/07/05 00:16:50;;;;;;;6.60;4.70;;;;;;;13.25;93.69;100307.06;697773;28;4575;-59
2021/07/05 00:17:10;;;;;;;8.95;4.30;;;;;;;13.26;93.08;100304.44;698219;28;1227;-57
2021/07/05 00:17:31;;;;;;;6.40;4.00;;;;;;;13.29;93.42;100314.00;699396;28;1058;-56
2021/07/05 00:17:55;;;;;;;5.70;4.20;;;;;;;13.28;93.75;100307.88;697936;28;3625;-59
2021/07/05 00:18:15;;;;;;;7.68;4.60;;;;;;;13.24;93.55;100310.63;697264;28;1221;-59
2021/07/05 00:18:35;;;;;;;7.75;4.90;;;;;;;13.22;93.93;100310.66;697461;28;2256;-57
2021/07/05 00:18:56;;;;;;;8.83;4.70;;;;;;;13.20;94.07;100314.22;697858;28;1338;-57
2021/07/05 00:19:18;;;;;;;7.78;4.57;;;;;;;13.18;94.25;100311.63;698968;28;1297;-57
2021/07/05 00:19:39;;;;;;;7.05;4.88;;;;;;;13.16;94.38;100302.91;698919;28;4295;-57
2021/07/05 00:19:59;;;;;;;8.85;4.78;;;;;;;13.16;94.36;100304.66;698190;28;1425;-58
2021/07/05 00:20:20;;;;;;;8.60;4.63;;;;;;;13.16;94.46;100308.16;695646;28;1138;-59
2021/07/05 00:20:43;;;;;;;8.65;4.70;;;;;;;13.17;94.23;100309.88;693622;28;3116;-59
2021/07/05 00:21:04;;;;;;;7.63;4.70;;;;;;;13.17;94.61;100309.88;689709;28;4272;-58
2021/07/05 00:21:24;;;;;;;8.07;4.85;;;;;;;13.16;94.44;100310.78;688536;28;1227;-56
2021/07/05 00:21:45;;;;;;;8.90;5.07;;;;;;;13.15;94.49;100306.41;685746;28;1424;-58
2021/07/05 00:22:06;;;;;;;9.52;4.93;;;;;;;13.13;94.81;100305.59;686737;28;1178;-57
2021/07/05 00:22:27;;;;;;;8.20;4.40;;;;;;;13.14;94.30;100309.94;686373;28;1462;-57
2021/07/05 00:22:48;;;;;;;7.30;4.50;;;;;;;13.14;94.15;100304.69;688446;28;4555;-58
2021/07/05 00:23:09;;;;;;;7.63;4.50;;;;;;;13.16;94.07;100309.91;692005;28;1184;-57
2021/07/05 00:23:30;;;;;;;7.10;4.22;;;;;;;13.16;94.08;100302.91;694634;28;1052;-57
2021/07/05 00:23:50;;;;;;;7.30;4.57;;;;;;;13.17;94.00;100307.25;695360;28;2590;-56
2021/07/05 00:24:11;;;;;;;6.03;4.30;;;;;;;13.18;93.75;100301.13;695435;28;3562;-56
2021/07/05 00:24:31;;;;;;;6.83;4.40;;;;;;;13.19;93.77;100308.06;697795;28;1638;-58
2021/07/05 00:24:51;;;;;;;7.60;4.28;;;;;;;13.17;93.81;100299.38;696668;28;1271;-57
2021/07/05 00:25:12;;;;;;;6.70;4.40;;;;;;;13.17;94.09;100298.53;695254;28;1163;-55
2021/07/05 00:25:33;;;;;;;7.25;4.55;;;;;;;13.15;94.39;100302.94;693741;28;1212;-58
2021/07/05 00:25:53;;;;;;;6.93;4.60;;;;;;;13.15;94.41;100297.69;694121;28;5204;-59
2021/07/05 00:26:13;;;;;;;7.75;4.60;;;;;;;13.15;94.11;100300.31;692075;28;1250;-59
2021/07/05 00:26:34;;;;;;;7.33;4.53;;;;;;;13.15;93.87;100301.16;691203;28;1408;-63
2021/07/05 00:26:54;;;;;;;6.32;4.40;;;;;;;13.17;93.94;100302.00;694272;28;4401;-57
2021/07/05 00:27:15;;;;;;;5.77;4.50;;;;;;;13.14;94.21;100302.06;696711;28;1613;-58
2021/07/05 00:27:35;;;;;;;6.55;4.45;;;;;;;13.13;94.17;100299.50;697180;28;1301;-57
2021/07/05 00:27:56;;;;;;;6.97;4.60;;;;;;;13.11;94.07;100295.13;696979;28;1423;-57
2021/07/05 00:28:16;;;;;;;7.90;4.60;;;;;;;13.07;93.90;100293.47;697248;28;1267;-57
2021/07/05 00:28:37;;;;;;;7.47;4.23;;;;;;;13.10;93.86;100305.66;696546;28;4379;-58
2021/07/05 00:28:57;;;;;;;6.18;4.20;;;;;;;13.10;94.16;100297.78;697124;28;1252;-59
2021/07/05 00:29:18;;;;;;;6.80;4.60;;;;;;;13.09;94.42;100303.94;696230;28;1243;-55
2021/07/05 00:29:38;;;;;;;6.43;4.20;;;;;;;13.10;94.00;100297.78;693813;28;2159;-57
2021/07/05 00:29:59;;;;;;;5.70;3.83;;;;;;;13.11;93.88;100294.25;694270;28;3843;-59
2021/07/05 00:30:21;;;;;;;5.73;4.27;;;;;;;13.13;94.13;100302.97;696095;28;1504;-55
2021/07/05 00:30:42;;;;;;;5.93;3.95;;;;;;;13.17;93.02;100298.53;696128;28;1452;-58
2021/07/05 00:31:03;;;;;;;5.37;3.87;;;;;;;13.18;93.57;100303.75;696841;28;1021;-58
2021/07/05 00:31:24;;;;;;;5.70;4.13;;;;;;;13.22;93.27;100301.91;698146;28;1047;-59
2021/07/05 00:31:45;;;;;;;5.57;3.83;;;;;;;13.22;93.35;100301.91;697145;28;4318;-55
2021/07/05 00:32:05;;;;;;;6.10;4.20;;;;;;;13.19;94.00;100296.72;696660;28;1299;-59
2021/07/05 00:32:26;;;;;;;7.35;4.47;;;;;;;13.17;93.91;100294.13;697464;28;1127;-56
2021/07/05 00:32:46;;;;;;;9.07;4.60;;;;;;;13.14;94.15;100302.06;696159;28;3783;-58
2021/07/05 00:33:07;;;;;;;6.22;4.15;;;;;;;13.16;93.44;100297.66;695437;28;1502;-58
2021/07/05 00:33:28;;;;;;;5.05;4.00;;;;;;;13.13;93.79;100297.72;696763;28;1288;-55
2021/07/05 00:33:48;;;;;;;5.10;4.13;;;;;;;13.11;93.79;100295.13;698758;28;1453;-57
2021/07/05 00:34:09;;;;;;;7.70;4.45;;;;;;;13.10;94.08;100300.41;699505;28;1034;-58
2021/07/05 00:34:29;;;;;;;6.90;4.53;;;;;;;13.08;94.09;100297.81;699209;28;1229;-59
2021/07/05 00:34:51;;;;;;;6.67;4.40;;;;;;;13.05;94.43;100304.88;697722;28;4845;-58
2021/07/05 00:35:13;;;;;;;8.13;4.50;;;;;;;13.02;94.28;100291.84;699068;28;1580;-54
2021/07/05 00:35:33;;;;;;;6.60;4.35;;;;;;;13.02;94.45;100291.84;697135;28;3224;-58
2021/07/05 00:35:54;;;;;;;8.73;4.70;;;;;;;13.02;94.42;100291.84;697980;28;3556;-55
2021/07/05 00:36:14;;;;;;;6.60;4.55;;;;;;;13.02;94.39;100295.31;697737;28;1594;-56
2021/07/05 00:36:35;;;;;;;7.17;4.37;;;;;;;13.04;94.43;100300.53;698696;28;1233;-58
2021/07/05 00:36:55;;;;;;;6.28;4.15;;;;;;;13.04;94.37;100295.28;698264;28;1508;-56
2021/07/05 00:37:16;;;;;;;6.60;4.47;;;;;;;13.04;94.50;100292.66;698723;28;1257;-58
2021/07/05 00:37:36;;;;;;;7.15;5.00;;;;;;;13.05;94.26;100299.63;699016;28;4507;-58
2021/07/05 00:37:57;;;;;;;6.67;4.70;;;;;;;13.04;94.56;100297.91;699294;28;1602;-54
2021/07/05 00:38:17;;;;;;;5.63;4.30;;;;;;;13.03;94.88;100296.16;698026;28;1098;-56
2021/07/05 00:38:38;;;;;;;6.97;4.33;;;;;;;13.05;94.15;100292.63;697946;28;2448;-54
2021/07/05 00:38:59;;;;;;;5.90;4.25;;;;;;;13.07;94.46;100298.72;699107;28;1098;-57
2021/07/05 00:39:19;;;;;;;5.63;4.00;;;;;;;13.10;93.40;100293.41;698036;28;1752;-57
2021/07/05 00:39:39;;;;;;;5.68;4.00;;;;;;;13.12;93.54;100295.97;696107;28;1461;-55
2021/07/05 00:40:02;;;;;;;5.67;4.10;;;;;;;13.12;93.52;100295.97;696781;28;1007;-56
2021/07/05 00:40:24;;;;;;;6.95;4.43;;;;;;;13.09;93.85;100299.53;696688;28;1326;-56
2021/07/05 00:40:45;;;;;;;7.93;5.03;;;;;;;13.08;94.28;100295.19;695508;28;4715;-58
2021/07/05 00:41:05;;;;;;;7.95;4.90;;;;;;;13.06;94.47;100293.50;696334;28;1373;-58
2021/07/05 00:41:29;;;;;;;7.27;4.67;;;;;;;13.03;94.28;100296.16;697228;28;1182;-59
2021/07/05 00:41:50;;;;;;;5.88;4.40;;;;;;;13.03;93.89;100296.16;698514;28;3512;-58
2021/07/05 00:42:11;;;;;;;7.45;4.30;;;;;;;13.06;94.14;100298.75;697866;28;1456;-56
2021/07/05 00:42:32;;;;;;;7.20;4.20;;;;;;;13.08;93.83;100284.72;698394;28;1161;-58
2021/07/05 00:42:55;;;;;;;6.78;4.30;;;;;;;13.10;93.86;100289.91;698104;28;1296;-55
2021/07/05 00:43:15;;;;;;;6.03;4.43;;;;;;;13.07;94.17;100295.22;697645;28;1301;-56
2021/07/05 00:43:36;;;;;;;6.00;4.40;;;;;;;13.05;94.36;100286.53;698099;28;4374;-57
2021/07/05 00:43:57;;;;;;;7.38;4.70;;;;;;;13.05;94.29;100289.13;697291;28;1518;-55
2021/07/05 00:44:17;;;;;;;7.75;4.60;;;;;;;13.04;94.54;100287.41;697469;28;1186;-58
2021/07/05 00:44:38;;;;;;;6.97;4.40;;;;;;;13.01;94.61;100284.84;696794;28;3934;-57
2021/07/05 00:44:58;;;;;;;6.47;4.20;;;;;;;13.00;94.70;100284.00;696477;28;1393;-59
2021/07/05 00:45:19;;;;;;;6.90;4.53;;;;;;;13.01;94.58;100292.72;696291;28;1052;-58
2021/07/05 00:45:40;;;;;;;7.32;4.75;;;;;;;12.98;95.14;100277.91;696446;28;1110;-57
2021/07/05 00:46:00;;;;;;;6.57;4.53;;;;;;;13.00;94.71;100284.00;699139;28;1224;-59
2021/07/05 00:46:21;;;;;;;6.37;4.00;;;;;;;13.01;94.72;100284.84;698771;28;1560;-58
2021/07/05 00:46:41;;;;;;;6.50;4.30;;;;;;;13.03;94.85;100280.41;698658;28;4295;-57
2021/07/05 00:47:02;;;;;;;5.88;3.95;;;;;;;13.06;94.03;100276.00;698833;28;1131;-59
2021/07/05 00:47:22;;;;;;;6.87;3.60;;;;;;;13.11;93.72;100281.13;698264;28;1048;-58
2021/07/05 00:47:43;;;;;;;5.85;3.60;;;;;;;13.14;93.31;100273.22;698070;28;4194;-59
2021/07/05 00:48:04;;;;;;;5.68;3.35;;;;;;;13.18;93.23;100281.84;697567;28;1235;-55
2021/07/05 00:48:25;;;;;;;5.78;3.95;;;;;;;13.19;93.86;100286.22;697815;28;1340;-56
2021/07/05 00:48:46;;;;;;;5.43;4.13;;;;;;;13.18;93.61;100285.38;698591;28;973;-57
2021/07/05 00:49:06;;;;;;;6.20;4.10;;;;;;;13.18;93.85;100281.84;699080;28;1495;-58
2021/07/05 00:49:26;;;;;;;7.88;4.03;;;;;;;13.17;93.62;100282.78;699213;28;1052;-59
2021/07/05 00:49:47;;;;;;;7.57;3.77;;;;;;;13.17;93.54;100283.63;697649;28;4720;-58
2021/07/05 00:50:10;;;;;;;8.23;4.05;;;;;;;13.16;93.85;100287.16;699932;28;1106;-59
2021/07/05 00:50:30;;;;;;;7.05;3.85;;;;;;;13.16;93.33;100275.78;698524;28;3107;-58
2021/07/05 00:50:51;;;;;;;6.90;4.00;;;;;;;13.16;93.66;100287.16;699726;28;1201;-56
2021/07/05 00:51:12;;;;;;;6.68;4.00;;;;;;;13.18;93.44;100281.84;698117;28;1163;-57
2021/07/05 00:51:32;;;;;;;7.47;3.80;;;;;;;13.16;93.57;100281.91;698464;28;1918;-57
2021/07/05 00:51:53;;;;;;;6.85;4.10;;;;;;;13.13;94.01;100287.22;698628;28;1455;-57
2021/07/05 00:52:14;;;;;;;6.23;4.07;;;;;;;13.10;94.02;100282.91;698315;28;1087;-55
2021/07/05 00:52:35;;;;;;;6.40;3.83;;;;;;;13.09;94.06;100290.81;699723;28;1098;-59
2021/07/05 00:52:58;;;;;;;7.03;3.95;;;;;;;13.06;94.14;100283.00;699218;28;4605;-57
2021/07/05 00:53:20;;;;;;;7.43;4.13;;;;;;;13.08;93.51;100289.97;699251;28;1990;-56
2021/07/05 00:53:40;;;;;;;6.18;3.78;;;;;;;13.09;93.50;100280.31;699695;28;3541;-56
2021/07/05 00:54:02;;;;;;;6.97;3.77;;;;;;;13.11;93.40;100287.25;699038;28;1425;-58
2021/07/05 00:54:22;;;;;;;5.20;3.53;;;;;;;13.14;92.79;100278.47;699274;28;1187;-59
2021/07/05 00:54:43;;;;;;;4.60;3.27;;;;;;;13.20;92.28;100278.31;697386;28;1090;-58
2021/07/05 00:55:06;;;;;;;5.60;3.53;;;;;;;13.18;93.28;100284.47;693954;28;1058;-57
2021/07/05 00:55:28;;;;;;;6.75;4.30;;;;;;;13.18;93.80;100285.38;695206;28;1364;-56
2021/07/05 00:55:49;;;;;;;8.40;4.20;;;;;;;13.17;93.38;100282.78;695869;28;4517;-55
2021/07/05 00:56:10;;;;;;;8.02;4.10;;;;;;;13.17;93.96;100282.78;697893;28;1000;-59
2021/07/05 00:56:30;;;;;;;8.48;4.10;;;;;;;13.13;93.92;100275.88;698461;28;3911;-59
2021/07/05 00:56:51;;;;;;;6.90;3.97;;;;;;;13.10;93.73;100276.78;696379;28;1236;-57
2021/07/05 00:57:20;;;;;;;6.32;3.70;;;;;;;13.11;93.43;100274.13;698654;28;1895;-57
2021/07/05 00:57:41;;;;;;;6.40;4.25;;;;;;;13.10;93.75;100272.41;698465;28;1359;-56
2021/07/05 00:58:02;;;;;;;6.13;4.05;;;;;;;13.09;93.91;100272.44;699145;28;1240;-57
2021/07/05 00:58:23;;;;;;;8.18;4.28;;;;;;;13.09;94.12;100280.31;699553;28;1196;-58
2021/07/05 00:58:44;;;;;;;8.10;4.53;;;;;;;13.09;93.88;100275.06;699232;28;4840;-57
2021/07/05 00:59:05;;;;;;;6.38;4.03;;;;;;;13.10;93.54;100274.16;697554;28;1468;-55
2021/07/05 00:59:27;;;;;;;6.28;3.90;;;;;;;13.11;93.66;100268.00;696267;28;3753;-58
2021/07/05 00:59:49;;;;;;;5.57;4.10;;;;;;;13.13;94.12;100271.47;695729;28;1459;-59
2021/07/05 01:00:12;;;;;;;7.50;4.60;;;;;;;13.10;94.26;100271.53;696888;28;1224;-58
2021/07/05 01:00:33;;;;;;;6.13;3.88;;;;;;;13.10;94.01;100267.16;695585;28;1524;-55
2021/07/05 01:00:53;;;;;;;6.20;3.80;;;;;;;13.11;93.90;100265.38;698096;28;1341;-59
2021/07/05 01:01:14;;;;;;;6.88;3.85;;;;;;;13.11;94.20;100268.00;696323;28;1654;-54
2021/07/05 01:01:34;;;;;;;8.10;4.20;;;;;;;13.11;94.04;100268.88;696845;28;1040;-57
2021/07/05 01:01:54;;;;;;;7.45;3.97;;;;;;;13.11;94.30;100262.75;696468;28;4633;-57
2021/07/05 01:02:17;;;;;;;6.87;4.07;;;;;;;13.08;94.48;100258.47;696523;28;3688;-58
2021/07/05 01:02:38;;;;;;;5.55;4.03;;;;;;;13.08;94.48;100260.19;696609;28;3990;-57
2021/07/05 01:02:59;;;;;;;6.55;4.40;;;;;;;13.07;94.36;100258.47;697139;28;1159;-59
2021/07/05 01:03:20;;;;;;;6.35;4.20;;;;;;;13.07;94.54;100261.09;696948;28;1302;-56
2021/07/05 01:03:40;;;;;;;6.43;4.20;;;;;;;13.07;93.96;100255.84;697537;28;1548;-57
2021/07/05 01:04:00;;;;;;;5.93;4.25;;;;;;;13.05;94.16;100262.91;697573;28;1074;-58
2021/07/05 01:04:21;;;;;;;6.90;4.20;;;;;;;13.04;94.10;100264.69;695889;28;1114;-54
2021/07/05 01:04:41;;;;;;;5.88;3.67;;;;;;;13.05;94.03;100261.13;697306;28;4546;-58
2021/07/05 01:05:02;;;;;;;6.63;3.87;;;;;;;13.05;93.92;100253.25;699669;28;1455;-57
2021/07/05 01:05:23;;;;;;;5.18;3.80;;;;;;;13.08;93.69;100257.56;702072;28;2247;-57
2021/07/05 01:05:44;;;;;;;5.50;3.57;;;;;;;13.10;93.26;100258.44;701510;28;1461;-58
2021/07/05 01:06:04;;;;;;;5.63;3.22;;;;;;;13.13;92.73;100250.47;701288;28;1572;-58
2021/07/05 01:06:27;;;;;;;4.60;3.20;;;;;;;13.19;92.80;100259.97;701218;28;1118;-56
2021/07/05 01:06:47;;;;;;;6.28;3.55;;;;;;;13.19;93.31;100260.81;702285;28;1076;-58
2021/07/05 01:07:07;;;;;;;7.53;3.80;;;;;;;13.17;93.57;100262.63;701314;28;1185;-55
2021/07/05 01:07:30;;;;;;;5.25;3.70;;;;;;;13.17;93.37;100260.00;699601;28;1502;-56
2021/07/05 01:07:50;;;;;;;5.60;3.70;;;;;;;13.16;93.42;100249.56;699578;28;5369;-57
2021/07/05 01:08:11;;;;;;;6.30;4.00;;;;;;;13.16;93.09;100266.16;700182;28;3492;-58
2021/07/05 01:08:31;;;;;;;6.67;4.00;;;;;;;13.15;93.58;100263.56;700333;28;3507;-58
2021/07/05 01:08:52;;;;;;;7.63;4.32;;;;;;;13.14;94.05;100259.19;701909;28;1245;-59
2021/07/05 01:09:12;;;;;;;9.43;4.53;;;;;;;13.14;93.78;100262.72;698746;28;1163;-56
2021/07/05 01:09:33;;;;;;;6.28;4.30;;;;;;;13.09;94.21;100257.53;695918;28;1536;-57
2021/07/05 01:09:53;;;;;;;6.20;4.30;;;;;;;13.08;94.38;100254.94;696768;28;2914;-59
2021/07/05 01:10:16;;;;;;;7.20;4.00;;;;;;;13.08;94.17;100262.81;697133;28;1474;-58
2021/07/05 01:10:36;;;;;;;5.32;3.42;;;;;;;13.12;93.33;100256.63;696884;28;5414;-57
2021/07/05 01:10:57;;;;;;;5.23;3.40;;;;;;;13.13;93.85;100258.34;694854;28;1280;-57
2021/07/05 01:11:20;;;;;;;5.03;3.70;;;;;;;13.12;94.05;100251.38;695150;28;3375;-54
2021/07/05 01:11:40;;;;;;;5.10;3.40;;;;;;;13.16;93.35;100258.28;693450;28;2371;-57
2021/07/05 01:12:01;;;;;;;5.30;3.67;;;;;;;13.17;93.59;100252.13;694895;28;1271;-55
2021/07/05 01:12:22;;;;;;;7.53;3.97;;;;;;;13.18;93.72;100256.50;692246;28;1477;-56
2021/07/05 01:12:43;;;;;;;9.38;4.22;;;;;;;13.17;93.76;100249.50;693363;28;1464;-56
2021/07/05 01:13:04;;;;;;;7.38;3.90;;;;;;;13.17;93.32;100251.28;694765;28;1107;-58
2021/07/05 01:13:24;;;;;;;7.43;4.00;;;;;;;13.15;93.64;100253.06;694593;28;1140;-55
2021/07/05 01:13:44;;;;;;;7.70;4.10;;;;;;;13.13;93.81;100247.84;698046;28;4304;-58
2021/07/05 01:14:07;;;;;;;6.38;4.25;;;;;;;13.13;93.91;100253.09;699153;28;3685;-58
2021/07/05 01:14:27;;;;;;;5.28;3.67;;;;;;;13.13;93.56;100250.47;701093;28;3461;-58
2021/07/05 01:14:48;;;;;;;5.88;3.30;;;;;;;13.14;92.93;100249.59;701554;28;1266;-56
2021/07/05 01:15:12;;;;;;;5.37;3.43;;;;;;;13.18;92.87;100256.50;698486;28;1232;-59
2021/07/05 01:15:33;;;;;;;5.05;3.67;;;;;;;13.20;93.51;100256.47;697990;28;1197;-57
2021/07/05 01:15:54;;;;;;;5.85;3.75;;;;;;;13.20;93.31;100256.47;697430;28;1166;-58
2021/07/05 01:16:14;;;;;;;5.80;3.73;;;;;;;13.18;93.46;100247.75;697972;28;1373;-58
2021/07/05 01:16:34;;;;;;;7.65;3.70;;;;;;;13.14;93.63;100256.56;697545;28;1983;-56
2021/07/05 01:16:55;;;;;;;6.03;3.93;;;;;;;13.14;93.48;100256.56;697902;28;4448;-57
2021/07/05 01:17:15;;;;;;;6.20;4.00;;;;;;;13.14;93.74;100256.56;698944;28;3815;-56
2021/07/05 01:17:36;;;;;;;6.47;4.10;;;;;;;13.13;94.29;100253.09;701336;28;1129;-58
2021/07/05 01:17:59;;;;;;;6.13;4.28;;;;;;;13.11;94.38;100253.13;700096;28;1333;-58
2021/07/05 01:18:20;;;;;;;6.50;4.30;;;;;;;13.11;93.96;100253.13;699842;28;1095;-55
2021/07/05 01:18:40;;;;;;;6.53;4.18;;;;;;;13.11;94.04;100249.63;700462;28;1494;-56
2021/07/05 01:19:01;;;;;;;5.70;3.67;;;;;;;13.13;93.66;100244.38;700401;28;1066;-58
2021/07/05 01:19:21;;;;;;;6.78;3.90;;;;;;;13.14;93.55;100249.59;700032;28;1186;-59
2021/07/05 01:19:47;;;;;;;8.87;4.20;;;;;;;13.14;93.43;100246.97;699084;28;4598;-58
2021/07/05 01:20:10;;;;;;;7.47;3.53;;;;;;;13.18;93.46;100242.50;701749;28;2016;-54
2021/07/05 01:20:33;;;;;;;6.38;3.55;;;;;;;13.19;93.31;100247.72;701324;28;1086;-55
2021/07/05 01:20:53;;;;;;;6.15;4.00;;;;;;;13.14;93.95;100241.72;701203;28;1731;-59
2021/07/05 01:21:13;;;;;;;6.10;4.30;;;;;;;13.12;93.88;100243.50;702175;28;1130;-58
2021/07/05 01:21:35;;;;;;;6.20;4.30;;;;;;;13.13;94.27;100247.00;701917;28;1114;-56
2021/07/05 01:21:56;;;;;;;6.55;4.28;;;;;;;13.13;94.41;100244.38;701265;28;1241;-58
2021/07/05 01:22:17;;;;;;;7.60;4.10;;;;;;;13.13;93.92;100244.38;698994;28;1223;-57
2021/07/05 01:22:38;;;;;;;6.28;3.50;;;;;;;13.14;93.46;100246.97;698332;28;5137;-58
2021/07/05 01:22:59;;;;;;;5.25;3.38;;;;;;;13.17;93.29;100239.03;694851;28;3646;-58
2021/07/05 01:23:19;;;;;;;5.50;3.80;;;;;;;13.14;93.44;100240.84;696574;28;3450;-55
2021/07/05 01:23:40;;;;;;;5.57;3.70;;;;;;;13.16;93.28;100246.94;696582;28;1343;-59
2021/07/05 01:24:00;;;;;;;6.13;3.67;;;;;;;13.17;92.71;100241.63;696998;28;1476;-57
2021/07/05 01:24:21;;;;;;;5.90;3.75;;;;;;;13.19;93.30;100246.84;695545;28;1211;-55
2021/07/05 01:24:43;;;;;;;7.63;4.05;;;;;;;13.18;93.83;100243.38;696067;28;1142;-59
2021/07/05 01:25:06;;;;;;;7.47;4.00;;;;;;;13.17;94.12;100249.50;693836;28;1408;-55
2021/07/05 01:25:29;;;;;;;7.50;3.72;;;;;;;13.15;93.89;100243.41;693392;28;1370;-57
2021/07/05 01:25:49;;;;;;;7.18;3.60;;;;;;;13.15;94.16;100245.19;694076;28;4273;-58
2021/07/05 01:26:09;;;;;;;7.50;3.93;;;;;;;13.13;94.28;100245.22;695597;28;3356;-58
2021/07/05 01:26:30;;;;;;;6.23;4.20;;;;;;;13.11;94.65;100252.25;696606;28;1178;-55
2021/07/05 01:26:50;;;;;;;5.90;4.45;;;;;;;13.11;94.47;100247.88;695180;28;1599;-59
2021/07/05 01:27:11;;;;;;;6.20;4.35;;;;;;;13.11;94.97;100247.88;697331;28;1274;-57
2021/07/05 01:27:31;;;;;;;7.17;4.60;;;;;;;13.13;94.78;100249.63;696660;28;1094;-58
2021/07/05 01:27:53;;;;;;;6.63;4.23;;;;;;;13.13;94.47;100245.22;696698;28;1262;-56
2021/07/05 01:28:13;;;;;;;5.93;4.30;;;;;;;13.14;94.62;100241.72;695084;28;1091;-54
2021/07/05 01:28:33;;;;;;;6.53;4.20;;;;;;;13.18;94.66;100239.88;695372;28;1055;-57
2021/07/05 01:28:54;;;;;;;6.10;3.70;;;;;;;13.16;94.32;100247.78;698989;28;5132;-57
2021/07/05 01:29:14;;;;;;;5.60;3.63;;;;;;;13.17;94.74;100241.63;698795;28;3451;-56
2021/07/05 01:29:35;;;;;;;5.80;4.30;;;;;;;13.16;94.97;100242.53;699241;28;1137;-59
2021/07/05 01:29:56;;;;;;;6.93;4.30;;;;;;;13.17;94.40;100243.41;699013;28;1231;-57
2021/07/05 01:30:18;;;;;;;5.77;3.50;;;;;;;13.20;93.72;100243.34;700492;28;1110;-53
2021/07/05 01:30:40;;;;;;;7.30;3.97;;;;;;;13.20;94.31;100241.56;701895;28;1157;-56
2021/07/05 01:31:00;;;;;;;7.53;4.10;;;;;;;13.18;94.18;100237.25;702078;28;1035;-57
2021/07/05 01:31:21;;;;;;;8.63;4.03;;;;;;;13.19;93.81;100239.84;701219;28;1056;-59
2021/07/05 01:31:41;;;;;;;6.05;3.47;;;;;;;13.20;93.76;100236.31;700809;28;5414;-56
2021/07/05 01:32:03;;;;;;;5.53;3.60;;;;;;;13.22;93.87;100236.28;701589;28;3212;-57
2021/07/05 01:32:23;;;;;;;5.60;3.90;;;;;;;13.22;94.36;100242.41;701627;28;1152;-56
2021/07/05 01:32:48;;;;;;;7.00;4.47;;;;;;;13.20;94.57;100240.72;699382;28;1427;-57
2021/07/05 01:33:09;;;;;;;7.50;4.20;;;;;;;13.18;94.61;100243.38;699438;28;1198;-58
2021/07/05 01:33:30;;;;;;;8.15;4.13;;;;;;;13.18;94.14;100239.88;700783;28;1324;-55
2021/07/05 01:33:52;;;;;;;7.03;4.00;;;;;;;13.18;94.11;100240.75;699919;28;1580;-57
2021/07/05 01:34:12;;;;;;;6.10;3.85;;;;;;;13.19;94.50;100244.22;699923;28;1253;-55
2021/07/05 01:34:33;;;;;;;6.53;3.80;;;;;;;13.19;94.32;100241.59;701287;28;1153;-59
2021/07/05 01:34:54;;;;;;;6.30;3.75;;;;;;;13.20;93.43;100249.44;701790;28;4597;-57
2021/07/05 01:35:15;;;;;;;5.63;3.38;;;;;;;13.23;93.07;100246.75;701039;28;4110;-57
2021/07/05 01:35:36;;;;;;;4.90;3.38;;;;;;;13.25;93.16;100244.97;700826;28;1176;-56
2021/07/05 01:35:56;;;;;;;5.45;3.40;;;;;;;13.25;93.23;100244.97;699369;28;1268;-59
2021/07/05 01:36:17;;;;;;;5.93;3.53;;;;;;;13.26;93.75;100244.06;699622;28;1435;-59
2021/07/05 01:36:37;;;;;;;5.93;4.00;;;;;;;13.24;93.64;100247.63;700358;28;1495;-56
2021/07/05 01:36:58;;;;;;;6.73;4.00;;;;;;;13.25;93.82;100244.06;700433;28;1123;-55
2021/07/05 01:37:18;;;;;;;7.40;4.10;;;;;;;13.22;93.83;100244.16;700216;28;1225;-56
2021/07/05 01:37:39;;;;;;;4.95;3.70;;;;;;;13.23;94.07;100246.75;699816;28;4363;-58
2021/07/05 01:38:01;;;;;;;5.70;4.47;;;;;;;13.23;94.38;100246.75;701099;28;4375;-58
2021/07/05 01:38:23;;;;;;;6.82;4.55;;;;;;;13.24;94.38;100247.63;701666;28;1347;-57
2021/07/05 01:38:44;;;;;;;9.27;4.40;;;;;;;13.24;94.25;100253.72;701308;28;1189;-57
2021/07/05 01:39:07;;;;;;;9.57;4.40;;;;;;;13.24;94.65;100248.47;701197;28;971;-57
2021/07/05 01:39:27;;;;;;;6.35;4.22;;;;;;;13.24;95.03;100243.22;699376;28;1424;-57
2021/07/05 01:39:47;;;;;;;5.97;4.25;;;;;;;13.24;94.60;100248.47;699142;28;1324;-57